Time;durP1;ratioP1;P1;durP2;ratioP2;P2;SDS_P1;SDS_P2;PMS_P1;PMS_P2;Temp;Humidity;BMP_temperature;BMP_pressure;BME280_temperature;BME280_humidity;BME280_pressure;Samples;Min_cycle;Max_cycle;Signal;HPM_P1;HPM_P2
2023/08/26 00:00:11;;;;;;;12.70;5.10;;;;;;;18.78;100.00;99550.83;109392;1251;62084;-74
2023/08/26 00:02:38;;;;;;;9.20;4.60;;;;;;;18.80;100.00;99548.98;108647;1251;1002210;-74
2023/08/26 00:05:06;;;;;;;6.20;4.70;;;;;;;18.82;100.00;99542.92;109449;1251;73707;-73
2023/08/26 00:07:34;;;;;;;9.30;4.50;;;;;;;18.87;100.00;99547.27;109429;1251;68830;-74
2023/08/26 00:10:02;;;;;;;7.10;4.20;;;;;;;18.89;100.00;99546.73;109402;1251;73189;-74
2023/08/26 00:12:29;;;;;;;13.90;4.90;;;;;;;18.91;100.00;99550.86;109393;1251;59321;-74
2023/08/26 00:14:57;;;;;;;5.60;4.30;;;;;;;18.93;100.00;99554.10;109424;1251;59004;-74
2023/08/26 00:17:24;;;;;;;12.50;4.90;;;;;;;18.96;100.00;99553.23;109418;1251;74678;-74
2023/08/26 00:19:52;;;;;;;7.60;4.40;;;;;;;18.99;100.00;99559.29;109463;1251;70751;-74
2023/08/26 00:22:20;;;;;;;8.10;4.00;;;;;;;19.00;100.00;99559.88;109388;1252;73089;-74
2023/08/26 00:24:48;;;;;;;6.70;4.20;;;;;;;19.02;100.00;99560.29;109409;1251;59668;-74
2023/08/26 00:27:15;;;;;;;7.80;4.00;;;;;;;19.03;100.00;99564.83;109440;1252;58887;-74
2023/08/26 00:29:44;;;;;;;7.50;3.90;;;;;;;19.04;100.00;99563.36;109409;1251;72941;-74
2023/08/26 00:32:12;;;;;;;8.10;4.30;;;;;;;19.05;100.00;99559.35;109447;1251;69023;-74
2023/08/26 00:34:39;;;;;;;12.60;4.90;;;;;;;19.06;100.00;99555.20;109408;1251;71455;-74
2023/08/26 00:37:07;;;;;;;16.20;4.80;;;;;;;19.07;100.00;99562.94;109392;1251;58988;-74
2023/08/26 00:39:35;;;;;;;7.80;4.40;;;;;;;19.08;100.00;99564.13;109335;1251;60038;-74
2023/08/26 00:42:02;;;;;;;8.20;4.60;;;;;;;19.07;100.00;99562.05;109430;1251;74697;-74
2023/08/26 00:44:30;;;;;;;7.60;4.10;;;;;;;19.07;100.00;99558.13;109446;1251;71127;-73
2023/08/26 00:46:59;;;;;;;9.20;4.10;;;;;;;19.07;100.00;99559.91;109356;1251;72647;-73
2023/08/26 00:49:27;;;;;;;5.20;4.20;;;;;;;19.07;100.00;99557.29;108658;1251;1002268;-74
2023/08/26 00:51:56;;;;;;;5.30;4.10;;;;;;;19.05;100.00;99557.55;108819;1251;398420;-73
2023/08/26 00:54:24;;;;;;;6.50;4.40;;;;;;;19.05;100.00;99556.88;109385;1250;74856;-74
2023/08/26 00:56:51;;;;;;;8.80;4.60;;;;;;;19.04;100.00;99562.09;109299;1250;71627;-74
2023/08/26 00:59:19;;;;;;;8.80;4.50;;;;;;;19.03;100.00;99558.06;109437;1251;73185;-74
2023/08/26 01:01:47;;;;;;;10.00;4.90;;;;;;;19.03;100.00;99553.09;109394;1251;60650;-74
2023/08/26 01:04:16;;;;;;;7.40;4.20;;;;;;;19.02;100.00;99549.63;109376;1251;58942;-74
2023/08/26 01:06:43;;;;;;;6.30;4.10;;;;;;;19.01;100.00;99547.38;109345;1251;73215;-74
2023/08/26 01:09:11;;;;;;;9.70;4.40;;;;;;;18.99;100.00;99548.42;109489;1251;69507;-73
2023/08/26 01:11:41;;;;;;;8.70;3.90;;;;;;;18.99;100.00;99550.58;109439;1251;72678;-74
2023/08/26 01:14:15;;;;;;;10.50;4.20;;;;;;;18.97;100.00;99553.73;109412;1251;60623;-73
2023/08/26 01:16:42;;;;;;;6.90;4.20;;;;;;;18.96;100.00;99546.30;109252;1251;59006;-74
2023/08/26 01:19:17;;;;;;;7.90;4.40;;;;;;;18.95;100.00;99547.05;109434;1251;74559;-74
2023/08/26 01:21:45;;;;;;;6.20;4.10;;;;;;;18.96;100.00;99548.26;109288;1251;71112;-74
2023/08/26 01:24:12;;;;;;;11.80;4.60;;;;;;;18.96;100.00;99546.86;109391;1251;70706;-74
2023/08/26 01:26:40;;;;;;;7.50;3.90;;;;;;;18.95;100.00;99550.77;109220;1251;59405;-74
2023/08/26 01:29:08;;;;;;;10.20;4.30;;;;;;;18.93;100.00;99547.90;109387;1251;59992;-74
2023/08/26 01:31:35;;;;;;;12.30;4.80;;;;;;;18.91;100.00;99542.67;109320;1251;73284;-74
2023/08/26 01:34:20;;;;;;;9.30;4.50;;;;;;;18.92;100.00;99541.39;109281;1251;71607;-74
2023/08/26 01:36:49;;;;;;;6.50;3.90;;;;;;;18.92;100.00;99535.35;109332;1251;72441;-74
2023/08/26 01:39:16;;;;;;;8.60;4.10;;;;;;;18.92;100.00;99534.98;109433;1251;59157;-74
2023/08/26 01:41:48;;;;;;;7.60;4.40;;;;;;;18.92;100.00;99530.52;109424;1251;60485;-74
2023/08/26 01:44:19;;;;;;;8.60;4.50;;;;;;;18.93;100.00;99523.52;109435;1251;73453;-73
2023/08/26 01:46:47;;;;;;;7.70;3.90;;;;;;;18.96;100.00;99518.23;109410;1251;70756;-74
2023/08/26 01:49:15;;;;;;;6.60;3.70;;;;;;;18.97;100.00;99516.94;109450;1251;72477;-74
2023/08/26 01:51:42;;;;;;;7.10;3.70;;;;;;;18.97;100.00;99512.83;109420;1253;60100;-74
2023/08/26 01:54:10;;;;;;;5.90;3.10;;;;;;;18.98;100.00;99510.10;109397;1251;59061;-74
2023/08/26 01:56:37;;;;;;;6.10;3.30;;;;;;;18.98;100.00;99506.35;109339;1251;74653;-74
2023/08/26 01:59:05;;;;;;;5.40;3.70;;;;;;;18.99;100.00;99502.74;109424;1251;69518;-74
2023/08/26 02:01:33;;;;;;;4.60;3.50;;;;;;;19.01;100.00;99501.72;109336;1251;73120;-74
2023/08/26 02:04:01;;;;;;;5.10;3.50;;;;;;;19.01;100.00;99503.45;109454;1251;60811;-74
2023/08/26 02:06:28;;;;;;;5.10;2.90;;;;;;;19.01;100.00;99495.49;109429;1253;58988;-74
2023/08/26 02:08:56;;;;;;;6.80;3.80;;;;;;;19.01;100.00;99494.77;109465;1251;74600;-74
2023/08/26 02:11:23;;;;;;;3.80;2.60;;;;;;;19.01;100.00;99494.91;109372;1251;71071;-73
2023/08/26 02:13:52;;;;;;;3.10;2.80;;;;;;;19.02;100.00;99491.30;109331;1253;71813;-74
2023/08/26 02:16:20;;;;;;;10.90;3.60;;;;;;;19.03;100.00;99495.70;109409;1252;58957;-74
2023/08/26 02:18:47;;;;;;;6.10;3.30;;;;;;;19.02;100.00;99498.63;109453;1256;59801;-74
2023/08/26 02:21:15;;;;;;;8.70;3.20;;;;;;;18.99;100.00;99497.56;109372;1251;74673;-74
2023/08/26 02:23:42;;;;;;;11.80;3.20;;;;;;;18.99;100.00;99492.78;109371;1255;69780;-74
2023/08/26 02:26:10;;;;;;;5.50;2.70;;;;;;;18.99;100.00;99498.45;109365;1251;72639;-74
2023/08/26 02:28:37;;;;;;;6.30;3.70;;;;;;;18.99;100.00;99504.88;109425;1251;59144;-73
2023/08/26 02:31:05;;;;;;;7.80;3.00;;;;;;;18.98;100.00;99499.95;109478;1251;60195;-74
2023/08/26 02:33:32;;;;;;;5.70;3.30;;;;;;;18.99;100.00;99504.71;109368;1251;73609;-74
2023/08/26 02:35:59;;;;;;;5.10;2.90;;;;;;;18.99;100.00;99505.25;109472;1251;71131;-74
2023/08/26 02:38:27;;;;;;;4.80;2.70;;;;;;;18.99;100.00;99507.39;109387;1251;70453;-73
2023/08/26 02:40:54;;;;;;;9.30;3.20;;;;;;;18.98;100.00;99507.77;109418;1251;59077;-74
2023/08/26 02:43:22;;;;;;;3.70;2.60;;;;;;;18.97;100.00;99502.00;109382;1251;58924;-74
2023/08/26 02:45:53;;;;;;;4.80;2.70;;;;;;;18.97;100.00;99500.77;109411;1251;74761;-74
2023/08/26 02:48:21;;;;;;;5.50;2.60;;;;;;;18.96;100.00;99496.36;109399;1251;70885;-74
2023/08/26 02:50:59;;;;;;;6.80;2.90;;;;;;;18.94;100.00;99489.68;109448;1251;72949;-74
2023/08/26 02:53:27;;;;;;;4.40;2.30;;;;;;;18.95;100.00;99483.61;109377;1251;59500;-74
2023/08/26 02:55:56;;;;;;;4.20;2.50;;;;;;;18.97;100.00;99480.96;109417;1251;60033;-74
2023/08/26 02:58:24;;;;;;;7.30;2.70;;;;;;;19.01;100.00;99477.67;109375;1252;73438;-74
2023/08/26 03:00:52;;;;;;;3.90;2.50;;;;;;;19.04;100.00;99469.10;109171;1251;69082;-74
2023/08/26 03:03:19;;;;;;;4.20;2.60;;;;;;;19.09;100.00;99474.45;109366;1251;71253;-74
2023/08/26 03:05:47;;;;;;;5.20;2.30;;;;;;;19.15;100.00;99470.63;109389;1253;60109;-74
2023/08/26 03:08:14;;;;;;;4.40;2.30;;;;;;;19.20;100.00;99465.84;109403;1251;58904;-74
2023/08/26 03:10:42;;;;;;;3.90;2.10;;;;;;;19.25;100.00;99467.11;109414;1251;74578;-74
2023/08/26 03:13:10;;;;;;;2.70;2.50;;;;;;;19.29;100.00;99469.45;109480;1252;71111;-74
2023/08/26 03:15:38;;;;;;;3.60;2.20;;;;;;;19.36;100.00;99472.19;109414;1252;72685;-74
2023/08/26 03:18:06;;;;;;;4.30;2.50;;;;;;;19.40;100.00;99473.30;109370;1252;59385;-74
2023/08/26 03:20:33;;;;;;;8.00;2.50;;;;;;;19.45;100.00;99470.31;109356;1251;59751;-74
2023/08/26 03:23:01;;;;;;;6.40;2.90;;;;;;;19.50;100.00;99475.46;109345;1251;73099;-74
2023/08/26 03:25:29;;;;;;;5.80;2.40;;;;;;;19.54;100.00;99476.61;109356;1251;70765;-74
2023/08/26 03:27:56;;;;;;;3.90;2.90;;;;;;;19.58;100.00;99474.15;109410;1252;72461;-74
2023/08/26 03:30:24;;;;;;;5.20;2.60;;;;;;;19.63;100.00;99469.70;109437;1251;59771;-74
2023/08/26 03:32:52;;;;;;;6.60;2.50;;;;;;;19.67;100.00;99468.00;108672;1251;1002311;-74
2023/08/26 03:35:20;;;;;;;7.80;2.40;;;;;;;19.69;100.00;99469.63;109475;1251;75549;-74
2023/08/26 03:37:47;;;;;;;3.50;2.40;;;;;;;19.71;100.00;99474.33;109357;1257;70631;-74
2023/08/26 03:40:15;;;;;;;2.90;2.30;;;;;;;19.71;100.00;99480.35;109375;1251;72677;-73
2023/08/26 03:42:42;;;;;;;2.50;2.30;;;;;;;19.72;100.00;99480.48;109351;1251;59351;-74
2023/08/26 03:45:12;;;;;;;2.90;2.40;;;;;;;19.72;100.00;99477.45;109454;1251;59095;-74
2023/08/26 03:47:39;;;;;;;3.70;2.40;;;;;;;19.73;100.00;99475.21;109431;1251;75017;-74
2023/08/26 03:50:07;;;;;;;8.80;2.50;;;;;;;19.77;100.00;99471.00;109411;1251;70026;-74
2023/08/26 03:52:35;;;;;;;4.90;2.50;;;;;;;19.82;100.00;99467.10;109446;1252;73276;-74
2023/08/26 03:55:02;;;;;;;12.00;2.40;;;;;;;19.88;100.00;99466.71;109370;1251;59998;-74
2023/08/26 03:57:30;;;;;;;7.00;2.40;;;;;;;19.92;100.00;99463.02;109379;1251;60135;-74
2023/08/26 03:59:58;;;;;;;7.50;2.50;;;;;;;19.95;100.00;99461.11;109451;1251;74716;-74
2023/08/26 04:02:25;;;;;;;3.30;2.50;;;;;;;19.99;100.00;99455.67;109434;1251;71593;-74
2023/08/26 04:04:53;;;;;;;7.60;2.40;;;;;;;20.03;100.00;99449.87;109438;1251;70464;-74
2023/08/26 04:07:20;;;;;;;6.50;2.70;;;;;;;20.07;100.00;99447.09;109339;1252;60048;-74
2023/08/26 04:09:48;;;;;;;3.30;2.70;;;;;;;20.13;100.00;99443.45;109354;1251;58978;-74
2023/08/26 04:12:15;;;;;;;8.40;2.70;;;;;;;20.18;100.00;99447.02;109366;1251;73407;-74
2023/08/26 04:14:45;;;;;;;14.90;2.60;;;;;;;20.23;100.00;99444.86;109389;1251;70099;-74
2023/08/26 04:17:12;;;;;;;8.20;2.90;;;;;;;20.30;100.00;99450.58;109377;1251;72192;-74
2023/08/26 04:19:40;;;;;;;5.20;2.60;;;;;;;20.35;100.00;99449.77;108614;1251;1002551;-74
2023/08/26 04:22:08;;;;;;;7.60;2.90;;;;;;;20.42;100.00;99440.38;109390;1251;59155;-74
2023/08/26 04:24:35;;;;;;;3.20;2.80;;;;;;;20.47;100.00;99438.00;109350;1251;74601;-73
2023/08/26 04:27:04;;;;;;;5.00;2.80;;;;;;;20.52;100.00;99439.58;109411;1251;70006;-74
2023/08/26 04:29:32;;;;;;;5.90;2.80;;;;;;;20.56;100.00;99442.29;109416;1251;72726;-73
2023/08/26 04:31:59;;;;;;;2.90;2.50;;;;;;;20.59;100.00;99441.85;109409;1253;60443;-74
2023/08/26 04:34:27;;;;;;;4.00;2.60;;;;;;;20.64;100.00;99436.75;109430;1251;60044;-74
2023/08/26 04:36:54;;;;;;;5.60;3.40;;;;;;;20.66;100.00;99428.57;109391;1251;76050;-75
2023/08/26 04:39:22;;;;;;;8.70;2.70;;;;;;;20.68;100.00;99431.99;109382;1251;70830;-74
2023/08/26 04:41:50;;;;;;;9.90;2.50;;;;;;;20.69;100.00;99431.14;109428;1251;72717;-74
2023/08/26 04:44:17;;;;;;;4.80;2.90;;;;;;;20.72;100.00;99433.63;109346;1253;59485;-74
2023/08/26 04:46:45;;;;;;;10.20;2.90;;;;;;;20.75;100.00;99439.47;109413;1251;59002;-74
2023/08/26 04:49:12;;;;;;;7.40;3.00;;;;;;;20.80;100.00;99441.02;109397;1253;75012;-74
2023/08/26 04:51:40;;;;;;;4.70;2.70;;;;;;;20.86;100.00;99438.40;109384;1251;70927;-74
2023/08/26 04:54:07;;;;;;;6.10;3.00;;;;;;;20.92;100.00;99434.36;109407;1251;71332;-74
2023/08/26 04:56:35;;;;;;;13.90;2.60;;;;;;;20.97;100.00;99430.21;109389;1252;60066;-74
2023/08/26 04:59:02;;;;;;;4.80;2.90;;;;;;;21.04;100.00;99430.27;109439;1254;59995;-74
2023/08/26 05:01:30;;;;;;;5.10;2.70;;;;;;;21.10;100.00;99432.58;109358;1251;74633;-74
2023/08/26 05:03:57;;;;;;;4.10;2.60;;;;;;;21.17;100.00;99429.52;109398;1251;71144;-74
2023/08/26 05:06:25;;;;;;;12.20;3.00;;;;;;;21.23;100.00;99424.40;109319;1253;72917;-75
2023/08/26 05:08:52;;;;;;;15.40;2.50;;;;;;;21.31;100.00;99425.02;109298;1251;59362;-73
2023/08/26 05:11:19;;;;;;;7.20;3.10;;;;;;;21.39;100.00;99420.25;109462;1251;58965;-74
2023/08/26 05:13:47;;;;;;;14.30;3.20;;;;;;;21.49;100.00;99419.13;109394;1251;75043;-74
2023/08/26 05:16:16;;;;;;;4.30;3.00;;;;;;;21.58;100.00;99413.05;109421;1251;70043;-74
2023/08/26 05:18:44;;;;;;;5.00;2.80;;;;;;;21.68;100.00;99412.42;109429;1251;73195;-75
2023/08/26 05:21:12;;;;;;;10.20;2.60;;;;;;;21.79;100.00;99409.73;109338;1253;59997;-75
2023/08/26 05:23:40;;;;;;;13.20;3.10;;;;;;;21.90;100.00;99408.44;109416;1251;60036;-75
2023/08/26 05:26:07;;;;;;;11.60;3.30;;;;;;;22.02;100.00;99404.77;109353;1251;73376;-74
2023/08/26 05:28:34;;;;;;;8.80;2.90;;;;;;;22.15;100.00;99400.85;109464;1251;70377;-75
2023/08/26 05:31:03;;;;;;;10.90;3.50;;;;;;;22.25;100.00;99394.84;109384;1251;71677;-74
2023/08/26 05:33:30;;;;;;;10.30;3.50;;;;;;;22.34;100.00;99399.66;109338;1252;60101;-74
2023/08/26 05:35:57;;;;;;;5.90;3.30;;;;;;;22.41;100.00;99400.96;109420;1251;60164;-75
2023/08/26 05:38:25;;;;;;;10.90;3.80;;;;;;;22.47;100.00;99401.69;109398;1253;74700;-75
2023/08/26 05:40:52;;;;;;;11.00;3.70;;;;;;;22.51;100.00;99398.86;109405;1251;70997;-74
2023/08/26 05:43:21;;;;;;;12.70;3.70;;;;;;;22.54;100.00;99400.00;109370;1253;72347;-75
2023/08/26 05:45:49;;;;;;;12.80;3.90;;;;;;;22.59;100.00;99403.73;109404;1252;60034;-75
2023/08/26 05:48:16;;;;;;;12.90;3.80;;;;;;;22.62;100.00;99405.92;109332;1256;60467;-74
2023/08/26 05:50:44;;;;;;;14.60;3.40;;;;;;;22.66;100.00;99402.27;109387;1251;74591;-74
2023/08/26 05:53:11;;;;;;;14.20;3.90;;;;;;;22.71;100.00;99401.30;109374;1251;69964;-75
2023/08/26 05:55:43;;;;;;;12.80;3.20;;;;;;;22.79;100.00;99397.70;109360;1253;72675;-76
2023/08/26 05:58:10;;;;;;;13.80;3.40;;;;;;;22.90;100.00;99396.20;109410;1251;59057;-74
2023/08/26 06:00:39;;;;;;;15.00;3.30;;;;;;;23.03;100.00;99397.60;109388;1251;60074;-75
2023/08/26 06:03:07;;;;;;;7.00;2.20;;;;;;;23.15;100.00;99395.08;109409;1251;74674;-75
2023/08/26 06:05:35;;;;;;;5.50;2.80;;;;;;;23.30;100.00;99389.83;109363;1251;70765;-74
2023/08/26 06:08:03;;;;;;;6.50;2.90;;;;;;;23.46;100.00;99390.70;109360;1253;72688;-74
2023/08/26 06:10:31;;;;;;;8.10;2.60;;;;;;;23.63;100.00;99392.57;109316;1252;60071;-74
2023/08/26 06:12:59;;;;;;;4.10;2.50;;;;;;;23.80;100.00;99387.46;109471;1252;60523;-74
2023/08/26 06:15:27;;;;;;;10.20;2.50;;;;;;;23.91;100.00;99384.65;109369;1251;74705;-74
2023/08/26 06:17:54;;;;;;;6.70;2.30;;;;;;;24.00;100.00;99384.05;109414;1251;69626;-74
2023/08/26 06:20:27;;;;;;;4.60;2.40;;;;;;;24.06;100.00;99386.17;109355;1253;72625;-74
2023/08/26 06:22:55;;;;;;;10.20;2.60;;;;;;;24.11;100.00;99386.37;109404;1251;60085;-74
2023/08/26 06:25:22;;;;;;;6.40;2.70;;;;;;;24.18;100.00;99385.03;109373;1251;59222;-74
2023/08/26 06:27:50;;;;;;;7.40;2.40;;;;;;;24.26;100.00;99383.04;109430;1251;73447;-74
2023/08/26 06:30:17;;;;;;;4.70;2.70;;;;;;;24.33;100.00;99385.80;109371;1253;69507;-74
2023/08/26 06:32:45;;;;;;;3.90;2.40;;;;;;;24.39;100.00;99390.27;109293;1251;72664;-74
2023/08/26 06:35:12;;;;;;;9.60;2.40;;;;;;;24.43;100.00;99391.30;109382;1251;59106;-74
2023/08/26 06:37:40;;;;;;;9.90;3.00;;;;;;;24.46;100.00;99391.74;109339;1251;59991;-74
2023/08/26 06:40:10;;;;;;;11.10;2.40;;;;;;;24.50;100.00;99387.50;109429;1251;75064;-74
2023/08/26 06:42:37;;;;;;;6.70;2.70;;;;;;;24.54;100.00;99384.23;109417;1252;71099;-73
2023/08/26 06:45:08;;;;;;;5.10;2.20;;;;;;;24.59;100.00;99388.61;109381;1253;72059;-74
2023/08/26 06:47:36;;;;;;;6.20;2.70;;;;;;;24.65;100.00;99386.63;109374;1251;61060;-74
2023/08/26 06:50:05;;;;;;;4.20;2.40;;;;;;;24.70;100.00;99385.41;109447;1251;60530;-75
2023/08/26 06:52:33;;;;;;;6.10;3.10;;;;;;;24.75;100.00;99382.54;109424;1251;75174;-75
2023/08/26 06:55:01;;;;;;;7.60;2.90;;;;;;;24.81;100.00;99386.82;109411;1251;69442;-74
2023/08/26 06:57:29;;;;;;;7.20;2.90;;;;;;;24.87;100.00;99392.14;109400;1253;72469;-74
2023/08/26 06:59:56;;;;;;;4.60;2.70;;;;;;;24.93;100.00;99396.60;109367;1253;59178;-74
2023/08/26 07:02:23;;;;;;;6.40;3.00;;;;;;;25.00;100.00;99395.48;109432;1251;59012;-74
2023/08/26 07:04:51;;;;;;;7.50;3.40;;;;;;;25.06;100.00;99395.18;109439;1251;73570;-75
2023/08/26 07:07:18;;;;;;;8.80;2.70;;;;;;;25.11;100.00;99398.81;109434;1251;70746;-76
2023/08/26 07:09:46;;;;;;;10.70;3.00;;;;;;;25.13;100.00;99401.91;109385;1251;71337;-74
2023/08/26 07:12:14;;;;;;;7.70;3.00;;;;;;;25.13;100.00;99409.04;109407;1252;59099;-75
2023/08/26 07:14:41;;;;;;;5.40;3.20;;;;;;;25.13;100.00;99411.23;109363;1251;59076;-74
2023/08/26 07:17:09;;;;;;;7.90;2.80;;;;;;;25.16;100.00;99405.56;109435;1251;72607;-75
2023/08/26 07:19:36;;;;;;;7.80;3.10;;;;;;;25.22;100.00;99406.96;109423;1251;70804;-75
2023/08/26 07:22:04;;;;;;;7.80;2.70;;;;;;;25.30;100.00;99404.56;109436;1251;72640;-75
2023/08/26 07:24:31;;;;;;;8.50;4.00;;;;;;;25.40;100.00;99406.86;109416;1251;59009;-74
2023/08/26 07:26:59;;;;;;;6.80;3.80;;;;;;;25.48;100.00;99399.06;109423;1251;59340;-74
2023/08/26 07:29:26;;;;;;;5.40;3.50;;;;;;;25.58;100.00;99393.54;109477;1251;73368;-75
2023/08/26 07:31:54;;;;;;;7.10;3.30;;;;;;;25.69;100.00;99402.56;109421;1251;69520;-74
2023/08/26 07:34:21;;;;;;;8.70;3.20;;;;;;;25.77;100.00;99403.02;109427;1251;72458;-75
2023/08/26 07:36:49;;;;;;;9.30;3.30;;;;;;;25.84;100.00;99405.83;109383;1251;58926;-75
2023/08/26 07:39:16;;;;;;;9.10;3.00;;;;;;;25.94;100.00;99405.29;109355;1251;58992;-74
2023/08/26 07:41:44;;;;;;;9.20;3.10;;;;;;;26.06;100.00;99398.90;109393;1251;73441;-74
2023/08/26 07:44:12;;;;;;;16.00;3.30;;;;;;;26.16;100.00;99397.84;109430;1251;70746;-75
2023/08/26 07:46:39;;;;;;;7.50;3.30;;;;;;;26.28;100.00;99396.45;109426;1251;71390;-76
2023/08/26 07:49:10;;;;;;;13.80;3.10;;;;;;;26.43;100.00;99397.12;109445;1251;60252;-75
2023/08/26 07:51:38;;;;;;;4.60;2.60;;;;;;;26.56;100.00;99400.02;109409;1251;60065;-75
2023/08/26 07:54:05;;;;;;;7.10;2.90;;;;;;;26.70;100.00;99389.46;109417;1251;74676;-75
2023/08/26 07:56:34;;;;;;;8.40;2.60;;;;;;;26.83;100.00;99382.72;109454;1251;71223;-75
2023/08/26 07:59:01;;;;;;;14.70;3.10;;;;;;;26.95;100.00;99374.04;109414;1254;72494;-75
2023/08/26 08:01:28;;;;;;;4.50;2.80;;;;;;;27.08;100.00;99379.17;109408;1252;60094;-74
2023/08/26 08:03:56;;;;;;;4.90;2.80;;;;;;;27.20;100.00;99376.70;109391;1251;59827;-75
2023/08/26 08:06:24;;;;;;;5.20;2.70;;;;;;;27.29;100.00;99371.00;109409;1251;74638;-75
2023/08/26 08:08:51;;;;;;;3.50;2.30;;;;;;;27.40;100.00;99364.48;109442;1251;69612;-75
2023/08/26 08:11:19;;;;;;;6.60;2.30;;;;;;;27.50;100.00;99363.19;109395;1251;71235;-75
2023/08/26 08:13:46;;;;;;;9.50;3.00;;;;;;;27.61;100.00;99362.60;109401;1255;59469;-75
2023/08/26 08:16:14;;;;;;;6.30;2.30;;;;;;;27.71;100.00;99361.06;109405;1251;58883;-75
2023/08/26 08:18:41;;;;;;;5.70;2.90;;;;;;;27.78;100.00;99364.41;109461;1251;74771;-74
2023/08/26 08:21:09;;;;;;;6.90;2.20;;;;;;;27.82;100.00;99355.98;108613;1251;1002338;-74
2023/08/26 08:23:38;;;;;;;6.30;3.00;;;;;;;27.87;100.00;99361.04;109394;1251;63861;-74
2023/08/26 08:26:05;;;;;;;4.70;2.10;;;;;;;27.90;99.85;99364.85;109399;1251;59105;-75
2023/08/26 08:28:33;;;;;;;6.00;2.30;;;;;;;27.86;100.00;99366.39;109507;1251;59009;-75
2023/08/26 08:31:00;;;;;;;4.80;2.30;;;;;;;27.85;100.00;99367.33;109448;1251;65852;-75
2023/08/26 08:33:29;;;;;;;5.70;2.40;;;;;;;27.88;100.00;99370.50;109431;1251;71159;-75
2023/08/26 08:35:57;;;;;;;2.50;1.90;;;;;;;27.87;100.00;99366.79;109396;1251;71496;-75
2023/08/26 08:38:25;;;;;;;4.20;2.50;;;;;;;27.86;100.00;99364.95;109446;1251;60090;-75
2023/08/26 08:40:52;;;;;;;8.30;2.10;;;;;;;27.87;100.00;99364.67;109435;1251;59408;-75
2023/08/26 08:43:20;;;;;;;4.60;2.30;;;;;;;27.89;100.00;99357.52;109426;1251;74061;-76
2023/08/26 08:45:49;;;;;;;8.90;3.00;;;;;;;27.94;100.00;99353.42;109419;1251;62309;-76
2023/08/26 08:48:17;;;;;;;30.50;17.30;;;;;;;28.05;100.00;99350.73;109378;1251;71419;-76
2023/08/26 08:50:45;;;;;;;36.60;21.10;;;;;;;28.19;100.00;99352.40;109340;1251;60179;-75
2023/08/26 08:53:12;;;;;;;17.00;9.70;;;;;;;28.34;100.00;99351.52;109400;1251;60544;-75
2023/08/26 08:55:40;;;;;;;49.10;34.60;;;;;;;28.47;100.00;99354.55;109199;1251;65767;-75
2023/08/26 08:58:08;;;;;;;29.50;18.00;;;;;;;28.62;100.00;99352.19;109345;1251;62191;-76
2023/08/26 09:00:37;;;;;;;93.20;55.10;;;;;;;28.77;100.00;99349.05;109323;1251;63979;-75
2023/08/26 09:03:06;;;;;;;265.10;168.40;;;;;;;28.91;100.00;99340.40;109400;1251;59027;-76
2023/08/26 09:05:34;;;;;;;81.70;47.40;;;;;;;29.05;100.00;99336.50;109386;1251;59042;-75
2023/08/26 09:08:02;;;;;;;112.00;59.50;;;;;;;29.17;100.00;99338.55;109413;1251;65659;-75
2023/08/26 09:10:30;;;;;;;91.60;48.80;;;;;;;29.27;100.00;99335.39;109366;1251;62419;-74
2023/08/26 09:12:57;;;;;;;146.40;93.00;;;;;;;29.37;100.00;99333.59;109329;1254;63760;-75
2023/08/26 09:15:26;;;;;;;53.70;29.90;;;;;;;29.45;100.00;99339.23;109341;1254;59284;-76
2023/08/26 09:18:00;;;;;;;38.80;21.40;;;;;;;29.53;100.00;99338.33;109423;1251;59213;-75
2023/08/26 09:20:29;;;;;;;15.80;10.20;;;;;;;29.59;100.00;99336.88;109427;1251;64604;-76
2023/08/26 09:23:03;;;;;;;23.30;11.80;;;;;;;29.63;100.00;99334.85;109437;1250;61070;-76
2023/08/26 09:25:50;;;;;;;;;;;;;;;29.71;100.00;99332.05;109453;1251;62565;-76
2023/08/26 09:28:18;;;;;;;196.90;113.70;;;;;;;29.86;100.00;99327.40;109298;1251;59294;-75
2023/08/26 09:31:05;;;;;;;130.80;71.70;;;;;;;30.02;100.00;99323.91;109423;1251;59113;-76
2023/08/26 09:33:33;;;;;;;37.20;20.90;;;;;;;30.15;100.00;99321.26;109426;1251;64682;-75
2023/08/26 09:36:01;;;;;;;15.10;7.30;;;;;;;30.23;100.00;99313.48;109359;1251;62375;-76
2023/08/26 09:38:44;;;;;;;25.80;13.50;;;;;;;30.31;96.31;99310.77;109392;1251;62569;-75
2023/08/26 09:41:12;;;;;;;24.20;14.20;;;;;;;30.39;99.42;99314.07;109374;1251;59420;-77
2023/08/26 09:43:41;;;;;;;6.70;4.50;;;;;;;30.41;100.00;99312.23;109407;1251;59219;-75
2023/08/26 09:46:08;;;;;;;13.40;6.50;;;;;;;30.41;100.00;99307.52;109403;1251;64494;-75
2023/08/26 09:48:36;;;;;;;14.00;4.10;;;;;;;30.42;100.00;99308.69;109426;1251;62428;-75
2023/08/26 09:51:07;;;;;;;14.20;4.20;;;;;;;30.39;100.00;99308.78;109407;1251;64348;-77
2023/08/26 09:53:35;;;;;;;21.10;10.00;;;;;;;30.35;100.00;99311.78;109305;1251;59048;-75
2023/08/26 09:56:02;;;;;;;20.80;7.80;;;;;;;30.32;100.00;99310.94;109414;1251;59099;-76
2023/08/26 09:58:30;;;;;;;14.20;6.60;;;;;;;30.25;100.00;99313.05;109256;1251;64598;-76
2023/08/26 10:00:57;;;;;;;20.70;8.70;;;;;;;30.18;100.00;99314.07;109286;1251;62657;-74
2023/08/26 10:03:25;;;;;;;6.10;3.60;;;;;;;30.15;100.00;99319.12;109368;1251;63772;-76
2023/08/26 10:05:54;;;;;;;5.30;2.90;;;;;;;30.11;100.00;99318.30;109382;1251;59403;-75
2023/08/26 10:08:27;;;;;;;4.60;3.10;;;;;;;29.95;100.00;99321.07;109432;1251;59282;-76
2023/08/26 10:10:55;;;;;;;10.80;5.70;;;;;;;29.85;100.00;99326.67;109451;1251;66130;-75
2023/08/26 10:13:24;;;;;;;14.10;6.50;;;;;;;29.85;100.00;99327.90;109399;1251;62199;-76
2023/08/26 10:15:52;;;;;;;14.70;5.00;;;;;;;29.90;100.00;99325.20;109392;1254;62880;-75
2023/08/26 10:18:28;;;;;;;13.60;4.10;;;;;;;29.91;100.00;99323.75;109421;1251;59346;-75
2023/08/26 10:20:56;;;;;;;31.50;14.90;;;;;;;29.90;100.00;99323.90;109392;1251;58956;-75
2023/08/26 10:23:23;;;;;;;8.90;3.90;;;;;;;29.88;100.00;99323.79;109412;1251;65748;-75
2023/08/26 10:25:50;;;;;;;9.40;3.90;;;;;;;29.83;100.00;99334.25;109380;1250;62314;-74
2023/08/26 10:28:19;;;;;;;10.50;3.00;;;;;;;29.79;100.00;99337.64;109404;1251;63839;-76
2023/08/26 10:30:46;;;;;;;8.90;3.80;;;;;;;29.81;100.00;99332.91;109329;1251;61110;-76
2023/08/26 10:33:15;;;;;;;7.60;3.70;;;;;;;29.90;100.00;99333.08;109436;1251;59413;-76
2023/08/26 10:35:42;;;;;;;9.40;3.50;;;;;;;29.99;100.00;99333.48;109437;1251;64588;-75
2023/08/26 10:38:11;;;;;;;10.10;3.20;;;;;;;30.03;100.00;99333.43;109232;1251;69844;-75
2023/08/26 10:40:39;;;;;;;11.50;3.90;;;;;;;29.99;100.00;99332.42;109340;1253;62486;-75
2023/08/26 10:43:08;;;;;;;10.80;3.60;;;;;;;29.98;100.00;99329.65;109415;1254;59486;-75
2023/08/26 10:45:48;;;;;;;24.80;13.60;;;;;;;29.95;100.00;99327.67;109414;1251;59402;-75
2023/08/26 10:48:16;;;;;;;86.00;45.90;;;;;;;29.95;100.00;99322.89;109403;1251;64649;-76
2023/08/26 10:50:46;;;;;;;20.70;10.50;;;;;;;29.96;100.00;99324.92;109342;1251;62212;-75
2023/08/26 10:53:14;;;;;;;30.80;16.40;;;;;;;29.92;100.00;99322.52;109193;1251;62443;-75
2023/08/26 10:55:43;;;;;;;20.00;11.30;;;;;;;29.90;100.00;99322.64;109399;1251;59451;-77
2023/08/26 10:58:19;;;;;;;13.20;4.80;;;;;;;29.91;100.00;99320.55;109382;1251;59041;-76
2023/08/26 11:00:51;;;;;;;33.90;11.40;;;;;;;29.88;100.00;99319.43;109454;1251;65744;-76
2023/08/26 11:03:19;;;;;;;29.50;11.90;;;;;;;29.83;100.00;99322.35;109436;1251;62179;-76
2023/08/26 11:05:59;;;;;;;15.60;8.50;;;;;;;29.76;100.00;99316.02;109396;1251;63677;-75
2023/08/26 11:08:27;;;;;;;16.30;9.00;;;;;;;29.72;100.00;99317.46;109262;1251;59306;-76
2023/08/26 11:10:54;;;;;;;22.20;7.50;;;;;;;29.67;100.00;99317.73;109358;1254;58967;-74
2023/08/26 11:13:22;;;;;;;334.50;176.30;;;;;;;29.58;100.00;99320.96;109377;1251;65768;-75
2023/08/26 11:15:50;;;;;;;78.20;40.20;;;;;;;29.52;100.00;99319.86;109400;1250;60987;-76
2023/08/26 11:18:19;;;;;;;11.70;5.00;;;;;;;29.46;97.96;99322.48;109427;1253;62468;-76